sensor_id;sensor_type;location;lat;lon;timestamp;pressure;altitude;pressure_sealevel;temperature;humidity
60583;BME280;46415;47.536;19.066;2024-02-23T00:01:39;-18518.22;;;10.63;78.44
60583;BME280;46415;47.536;19.066;2024-02-23T00:04:42;-18520.97;;;10.73;78.21
60583;BME280;46415;47.536;19.066;2024-02-23T00:07:45;-18521.25;;;10.74;78.28
60583;BME280;46415;47.536;19.066;2024-02-23T00:10:48;-18520.97;;;10.73;78.21
60583;BME280;46415;47.536;19.066;2024-02-23T00:13:51;-18521.25;;;10.74;78.12
60583;BME280;46415;47.536;19.066;2024-02-23T00:16:54;-18520.56;;;10.72;78.44
60583;BME280;46415;47.536;19.066;2024-02-23T00:19:56;-18520.00;;;10.70;78.85
60583;BME280;46415;47.536;19.066;2024-02-23T00:22:59;-18520.16;;;10.70;79.11
60583;BME280;46415;47.536;19.066;2024-02-23T00:26:02;-18520.97;;;10.73;78.76
60583;BME280;46415;47.536;19.066;2024-02-23T00:29:05;-18523.97;;;10.84;78.41
60583;BME280;46415;47.536;19.066;2024-02-23T00:32:08;-18521.94;;;10.77;79.11
60583;BME280;46415;47.536;19.066;2024-02-23T00:35:11;-18521.78;;;10.76;78.71
60583;BME280;46415;47.536;19.066;2024-02-23T00:38:14;-18521.25;;;10.74;79.10
60583;BME280;46415;47.536;19.066;2024-02-23T00:41:17;-18523.03;;;10.81;78.82
60583;BME280;46415;47.536;19.066;2024-02-23T00:44:20;-18524.81;;;10.87;78.99
60583;BME280;46415;47.536;19.066;2024-02-23T00:47:23;-18522.88;;;10.80;79.57
60583;BME280;46415;47.536;19.066;2024-02-23T00:50:25;-18522.62;;;10.79;80.23
60583;BME280;46415;47.536;19.066;2024-02-23T00:53:31;-18522.62;;;10.79;80.68
60583;BME280;46415;47.536;19.066;2024-02-23T00:56:34;-18519.88;;;10.69;81.51
60583;BME280;46415;47.536;19.066;2024-02-23T00:59:52;-18517.69;;;10.61;82.47
60583;BME280;46415;47.536;19.066;2024-02-23T01:02:55;-18515.50;;;10.53;84.67
60583;BME280;46415;47.536;19.066;2024-02-23T01:05:58;-18515.09;;;10.51;84.41
60583;BME280;46415;47.536;19.066;2024-02-23T01:09:00;-18515.22;;;10.52;84.82
60583;BME280;46415;47.536;19.066;2024-02-23T01:12:03;-18513.03;;;10.44;86.02
60583;BME280;46415;47.536;19.066;2024-02-23T01:15:06;-18515.34;;;10.52;84.40
60583;BME280;46415;47.536;19.066;2024-02-23T01:18:09;-18518.78;;;10.65;85.62
60583;BME280;46415;47.536;19.066;2024-02-23T01:21:13;-18516.31;;;10.56;87.31
60583;BME280;46415;47.536;19.066;2024-02-23T01:24:16;-18517.41;;;10.60;87.46
60583;BME280;46415;47.536;19.066;2024-02-23T01:27:19;-18518.50;;;10.64;88.52
60583;BME280;46415;47.536;19.066;2024-02-23T01:30:21;-18520.44;;;10.71;88.64
60583;BME280;46415;47.536;19.066;2024-02-23T01:33:24;-18521.25;;;10.74;89.24
60583;BME280;46415;47.536;19.066;2024-02-23T01:36:27;-18522.88;;;10.80;90.24
60583;BME280;46415;47.536;19.066;2024-02-23T01:39:30;-18522.19;;;10.78;91.17
60583;BME280;46415;47.536;19.066;2024-02-23T01:42:33;-18518.91;;;10.66;94.15
60583;BME280;46415;47.536;19.066;2024-02-23T01:45:35;-18512.22;;;10.41;97.89
60583;BME280;46415;47.536;19.066;2024-02-23T01:48:39;-18508.66;;;10.28;100.00
60583;BME280;46415;47.536;19.066;2024-02-23T01:51:41;-18504.53;;;10.12;100.00
60583;BME280;46415;47.536;19.066;2024-02-23T01:54:44;-18500.28;;;9.97;100.00
60583;BME280;46415;47.536;19.066;2024-02-23T01:57:47;-18496.31;;;9.82;100.00
60583;BME280;46415;47.536;19.066;2024-02-23T02:00:52;-18493.72;;;9.72;100.00
60583;BME280;46415;47.536;19.066;2024-02-23T02:03:55;-18491.78;;;9.65;100.00
60583;BME280;46415;47.536;19.066;2024-02-23T02:06:59;-18493.03;;;9.70;100.00
60583;BME280;46415;47.536;19.066;2024-02-23T02:10:02;-18492.06;;;9.66;100.00
60583;BME280;46415;47.536;19.066;2024-02-23T02:13:08;-18491.78;;;9.65;100.00
60583;BME280;46415;47.536;19.066;2024-02-23T02:16:11;-18489.47;;;9.57;100.00
60583;BME280;46415;47.536;19.066;2024-02-23T02:19:14;-18488.22;;;9.52;100.00
60583;BME280;46415;47.536;19.066;2024-02-23T02:22:17;-18487.81;;;9.51;100.00
60583;BME280;46415;47.536;19.066;2024-02-23T02:25:20;-18486.19;;;9.45;100.00
60583;BME280;46415;47.536;19.066;2024-02-23T02:28:23;-18484.25;;;9.37;100.00
60583;BME280;46415;47.536;19.066;2024-02-23T02:31:26;-18483.28;;;9.34;100.00
60583;BME280;46415;47.536;19.066;2024-02-23T02:34:29;-18484.41;;;9.38;100.00
60583;BME280;46415;47.536;19.066;2024-02-23T02:37:32;-18483.84;;;9.36;100.00
60583;BME280;46415;47.536;19.066;2024-02-23T02:40:35;-18483.03;;;9.33;100.00
60583;BME280;46415;47.536;19.066;2024-02-23T02:43:37;-18481.50;;;9.27;100.00
60583;BME280;46415;47.536;19.066;2024-02-23T02:46:41;-18479.19;;;9.19;100.00
60583;BME280;46415;47.536;19.066;2024-02-23T02:49:44;-18477.41;;;9.12;100.00
60583;BME280;46415;47.536;19.066;2024-02-23T02:52:46;-18475.75;;;9.06;100.00
60583;BME280;46415;47.536;19.066;2024-02-23T02:55:49;-18474.38;;;9.01;100.00
60583;BME280;46415;47.536;19.066;2024-02-23T02:58:52;-18474.38;;;9.01;100.00
60583;BME280;46415;47.536;19.066;2024-02-23T03:01:55;-18470.56;;;8.87;100.00
60583;BME280;46415;47.536;19.066;2024-02-23T03:05:00;-18465.88;;;8.70;100.00
60583;BME280;46415;47.536;19.066;2024-02-23T03:08:02;-18464.66;;;8.65;100.00
60583;BME280;46415;47.536;19.066;2024-02-23T03:11:05;-18461.62;;;8.54;100.00
60583;BME280;46415;47.536;19.066;2024-02-23T03:14:08;-18459.56;;;8.46;100.00
60583;BME280;46415;47.536;19.066;2024-02-23T03:17:13;-18457.09;;;8.37;100.00
60583;BME280;46415;47.536;19.066;2024-02-23T03:20:16;-18457.09;;;8.37;100.00
60583;BME280;46415;47.536;19.066;2024-02-23T03:23:19;-18456.16;;;8.34;100.00
60583;BME280;46415;47.536;19.066;2024-02-23T03:26:21;-18453.41;;;8.24;100.00
60583;BME280;46415;47.536;19.066;2024-02-23T03:29:24;-18453.69;;;8.25;100.00
60583;BME280;46415;47.536;19.066;2024-02-23T03:32:27;-18452.84;;;8.22;100.00
60583;BME280;46415;47.536;19.066;2024-02-23T03:35:30;-18451.47;;;8.16;100.00
60583;BME280;46415;47.536;19.066;2024-02-23T03:38:33;-18451.06;;;8.15;100.00
60583;BME280;46415;47.536;19.066;2024-02-23T03:41:37;-18452.16;;;8.19;100.00
60583;BME280;46415;47.536;19.066;2024-02-23T03:44:39;-18450.53;;;8.13;100.00
60583;BME280;46415;47.536;19.066;2024-02-23T03:47:44;-18450.78;;;8.14;100.00
60583;BME280;46415;47.536;19.066;2024-02-23T03:50:47;-18450.94;;;8.14;100.00
60583;BME280;46415;47.536;19.066;2024-02-23T03:53:50;-18450.94;;;8.14;100.00
60583;BME280;46415;47.536;19.066;2024-02-23T03:56:52;-18449.84;;;8.10;100.00
60583;BME280;46415;47.536;19.066;2024-02-23T03:59:56;-18449.56;;;8.09;100.00
60583;BME280;46415;47.536;19.066;2024-02-23T04:02:59;-18451.22;;;8.15;100.00
60583;BME280;46415;47.536;19.066;2024-02-23T04:06:02;-18453.00;;;8.22;100.00
60583;BME280;46415;47.536;19.066;2024-02-23T04:09:05;-18451.34;;;8.16;100.00
60583;BME280;46415;47.536;19.066;2024-02-23T04:12:08;-18452.44;;;8.20;100.00
60583;BME280;46415;47.536;19.066;2024-02-23T04:15:11;-18453.25;;;8.23;100.00
60583;BME280;46415;47.536;19.066;2024-02-23T04:18:13;-18454.09;;;8.26;100.00
60583;BME280;46415;47.536;19.066;2024-02-23T04:21:16;-18454.91;;;8.29;100.00
60583;BME280;46415;47.536;19.066;2024-02-23T04:24:19;-18456.56;;;8.35;100.00
60583;BME280;46415;47.536;19.066;2024-02-23T04:27:24;-18455.88;;;8.33;100.00
60583;BME280;46415;47.536;19.066;2024-02-23T04:30:27;-18460.41;;;8.49;100.00
60583;BME280;46415;47.536;19.066;2024-02-23T04:33:30;-18461.50;;;8.53;100.00
60583;BME280;46415;47.536;19.066;2024-02-23T04:36:33;-18461.78;;;8.54;100.00
60583;BME280;46415;47.536;19.066;2024-02-23T04:39:35;-18462.31;;;8.56;100.00
60583;BME280;46415;47.536;19.066;2024-02-23T04:42:43;-18460.81;;;8.51;100.00
60583;BME280;46415;47.536;19.066;2024-02-23T04:45:46;-18464.25;;;8.64;100.00
60583;BME280;46415;47.536;19.066;2024-02-23T04:48:49;-18462.59;;;8.57;100.00
60583;BME280;46415;47.536;19.066;2024-02-23T04:51:52;-18462.72;;;8.58;100.00
60583;BME280;46415;47.536;19.066;2024-02-23T04:54:55;-18464.66;;;8.65;100.00
60583;BME280;46415;47.536;19.066;2024-02-23T04:57:58;-18465.06;;;8.67;100.00
60583;BME280;46415;47.536;19.066;2024-02-23T05:01:00;-18464.50;;;8.65;100.00
60583;BME280;46415;47.536;19.066;2024-02-23T05:04:04;-18463.69;;;8.62;100.00
60583;BME280;46415;47.536;19.066;2024-02-23T05:07:07;-18463.28;;;8.60;100.00
60583;BME280;46415;47.536;19.066;2024-02-23T05:10:10;-18464.25;;;8.64;100.00
60583;BME280;46415;47.536;19.066;2024-02-23T05:13:13;-18462.31;;;8.56;100.00
60583;BME280;46415;47.536;19.066;2024-02-23T05:16:16;-18464.66;;;8.65;100.00
60583;BME280;46415;47.536;19.066;2024-02-23T05:19:19;-18465.47;;;8.68;100.00
60583;BME280;46415;47.536;19.066;2024-02-23T05:22:22;-18464.66;;;8.65;100.00
60583;BME280;46415;47.536;19.066;2024-02-23T05:25:25;-18465.06;;;8.67;100.00
60583;BME280;46415;47.536;19.066;2024-02-23T05:28:30;-18464.38;;;8.64;100.00
60583;BME280;46415;47.536;19.066;2024-02-23T05:31:47;-18462.88;;;8.58;100.00
60583;BME280;46415;47.536;19.066;2024-02-23T05:34:51;-18462.47;;;8.57;100.00
60583;BME280;46415;47.536;19.066;2024-02-23T05:37:57;-18462.59;;;8.57;100.00
60583;BME280;46415;47.536;19.066;2024-02-23T05:40:59;-18460.53;;;8.50;100.00
60583;BME280;46415;47.536;19.066;2024-02-23T05:44:04;-18460.25;;;8.49;100.00
60583;BME280;46415;47.536;19.066;2024-02-23T05:47:08;-18459.56;;;8.46;100.00
60583;BME280;46415;47.536;19.066;2024-02-23T05:50:12;-18459.31;;;8.45;100.00
60583;BME280;46415;47.536;19.066;2024-02-23T05:53:15;-18458.47;;;8.42;100.00
60583;BME280;46415;47.536;19.066;2024-02-23T05:56:18;-18458.06;;;8.41;100.00
60583;BME280;46415;47.536;19.066;2024-02-23T05:59:21;-18458.75;;;8.43;100.00
60583;BME280;46415;47.536;19.066;2024-02-23T06:02:24;-18458.06;;;8.41;100.00
60583;BME280;46415;47.536;19.066;2024-02-23T06:05:27;-18456.41;;;8.35;100.00
60583;BME280;46415;47.536;19.066;2024-02-23T06:08:31;-18458.75;;;8.43;100.00
60583;BME280;46415;47.536;19.066;2024-02-23T06:11:34;-18458.47;;;8.42;100.00
60583;BME280;46415;47.536;19.066;2024-02-23T06:14:37;-18457.09;;;8.37;100.00
60583;BME280;46415;47.536;19.066;2024-02-23T06:17:40;-18457.09;;;8.37;100.00
60583;BME280;46415;47.536;19.066;2024-02-23T06:20:43;-18456.97;;;8.37;100.00
60583;BME280;46415;47.536;19.066;2024-02-23T06:23:46;-18460.69;;;8.50;100.00
60583;BME280;46415;47.536;19.066;2024-02-23T06:26:49;-18460.69;;;8.50;100.00
60583;BME280;46415;47.536;19.066;2024-02-23T06:29:52;-18460.00;;;8.48;100.00
60583;BME280;46415;47.536;19.066;2024-02-23T06:32:55;-18460.69;;;8.50;100.00
60583;BME280;46415;47.536;19.066;2024-02-23T06:35:58;-18460.94;;;8.51;100.00
60583;BME280;46415;47.536;19.066;2024-02-23T06:39:01;-18462.31;;;8.56;100.00
60583;BME280;46415;47.536;19.066;2024-02-23T06:42:04;-18463.56;;;8.61;100.00
60583;BME280;46415;47.536;19.066;2024-02-23T06:45:07;-18464.09;;;8.63;100.00
60583;BME280;46415;47.536;19.066;2024-02-23T06:48:10;-18464.94;;;8.66;100.00
60583;BME280;46415;47.536;19.066;2024-02-23T06:51:13;-18465.63;;;8.69;100.00
60583;BME280;46415;47.536;19.066;2024-02-23T06:54:16;-18464.94;;;8.66;100.00
60583;BME280;46415;47.536;19.066;2024-02-23T06:57:20;-18468.78;;;8.80;100.00
60583;BME280;46415;47.536;19.066;2024-02-23T07:00:23;-18468.50;;;8.79;100.00
60583;BME280;46415;47.536;19.066;2024-02-23T07:03:25;-18468.34;;;8.79;100.00
60583;BME280;46415;47.536;19.066;2024-02-23T07:06:29;-18468.34;;;8.79;100.00
60583;BME280;46415;47.536;19.066;2024-02-23T07:09:34;-18470.41;;;8.86;100.00
60583;BME280;46415;47.536;19.066;2024-02-23T07:12:37;-18470.69;;;8.87;100.00
60583;BME280;46415;47.536;19.066;2024-02-23T07:15:39;-18470.28;;;8.86;100.00
60583;BME280;46415;47.536;19.066;2024-02-23T07:18:42;-18470.41;;;8.86;100.00
60583;BME280;46415;47.536;19.066;2024-02-23T07:21:45;-18468.91;;;8.81;100.00
60583;BME280;46415;47.536;19.066;2024-02-23T07:24:48;-18467.66;;;8.76;100.00
60583;BME280;46415;47.536;19.066;2024-02-23T07:27:52;-18468.78;;;8.80;100.00
60583;BME280;46415;47.536;19.066;2024-02-23T07:30:55;-18470.81;;;8.88;100.00
60583;BME280;46415;47.536;19.066;2024-02-23T07:33:57;-18471.66;;;8.91;100.00
60583;BME280;46415;47.536;19.066;2024-02-23T07:37:00;-18473.16;;;8.96;100.00
60583;BME280;46415;47.536;19.066;2024-02-23T07:40:03;-18474.94;;;9.03;100.00
60583;BME280;46415;47.536;19.066;2024-02-23T07:43:07;-18474.94;;;9.03;100.00
60583;BME280;46415;47.536;19.066;2024-02-23T07:46:10;-18475.50;;;9.05;100.00
60583;BME280;46415;47.536;19.066;2024-02-23T07:49:13;-18478.09;;;9.15;100.00
60583;BME280;46415;47.536;19.066;2024-02-23T07:52:16;-18476.72;;;9.10;100.00
60583;BME280;46415;47.536;19.066;2024-02-23T07:55:19;-18479.03;;;9.18;100.00
60583;BME280;46415;47.536;19.066;2024-02-23T07:58:22;-18479.03;;;9.18;100.00
60583;BME280;46415;47.536;19.066;2024-02-23T08:01:25;-18477.94;;;9.14;100.00
60583;BME280;46415;47.536;19.066;2024-02-23T08:04:28;-18479.88;;;9.21;100.00
60583;BME280;46415;47.536;19.066;2024-02-23T08:07:31;-18482.06;;;9.29;100.00
60583;BME280;46415;47.536;19.066;2024-02-23T08:10:34;-18482.19;;;9.30;100.00
60583;BME280;46415;47.536;19.066;2024-02-23T08:13:37;-18483.56;;;9.35;100.00
60583;BME280;46415;47.536;19.066;2024-02-23T08:16:40;-18484.81;;;9.39;100.00
60583;BME280;46415;47.536;19.066;2024-02-23T08:19:42;-18486.88;;;9.47;100.00
60583;BME280;46415;47.536;19.066;2024-02-23T08:22:45;-18487.81;;;9.51;100.00
60583;BME280;46415;47.536;19.066;2024-02-23T08:25:48;-18491.66;;;9.65;100.00
60583;BME280;46415;47.536;19.066;2024-02-23T08:28:51;-18491.66;;;9.65;100.00
60583;BME280;46415;47.536;19.066;2024-02-23T08:31:53;-18492.34;;;9.67;100.00
60583;BME280;46415;47.536;19.066;2024-02-23T08:34:56;-18494.41;;;9.75;100.00
60583;BME280;46415;47.536;19.066;2024-02-23T08:38:02;-18497.53;;;9.87;100.00
60583;BME280;46415;47.536;19.066;2024-02-23T08:41:05;-18495.91;;;9.80;100.00
60583;BME280;46415;47.536;19.066;2024-02-23T08:44:08;-18495.06;;;9.77;100.00
60583;BME280;46415;47.536;19.066;2024-02-23T08:47:11;-18495.63;;;9.79;100.00
60583;BME280;46415;47.536;19.066;2024-02-23T08:50:13;-18497.69;;;9.87;100.00
60583;BME280;46415;47.536;19.066;2024-02-23T08:53:17;-18501.53;;;10.01;100.00
60583;BME280;46415;47.536;19.066;2024-02-23T08:56:20;-18500.97;;;9.99;100.00
60583;BME280;46415;47.536;19.066;2024-02-23T08:59:23;-18501.09;;;10.00;100.00
60583;BME280;46415;47.536;19.066;2024-02-23T09:02:26;-18499.88;;;9.95;100.00
60583;BME280;46415;47.536;19.066;2024-02-23T09:05:29;-18499.88;;;9.95;100.00
60583;BME280;46415;47.536;19.066;2024-02-23T09:08:32;-18495.34;;;9.78;100.00
60583;BME280;46415;47.536;19.066;2024-02-23T09:11:35;-18495.75;;;9.80;100.00
60583;BME280;46415;47.536;19.066;2024-02-23T09:14:39;-18499.31;;;9.93;100.00
60583;BME280;46415;47.536;19.066;2024-02-23T09:17:44;-18499.31;;;9.93;100.00
60583;BME280;46415;47.536;19.066;2024-02-23T09:20:48;-18499.31;;;9.93;100.00
60583;BME280;46415;47.536;19.066;2024-02-23T09:23:51;-18503.97;;;10.10;100.00
60583;BME280;46415;47.536;19.066;2024-02-23T09:26:54;-18509.75;;;10.32;100.00
60583;BME280;46415;47.536;19.066;2024-02-23T09:29:56;-18513.44;;;10.45;100.00
60583;BME280;46415;47.536;19.066;2024-02-23T09:33:01;-18517.69;;;10.61;100.00
60583;BME280;46415;47.536;19.066;2024-02-23T09:36:04;-18518.38;;;10.63;100.00
60583;BME280;46415;47.536;19.066;2024-02-23T09:39:07;-18518.66;;;10.64;100.00
60583;BME280;46415;47.536;19.066;2024-02-23T09:42:10;-18518.78;;;10.65;100.00
60583;BME280;46415;47.536;19.066;2024-02-23T09:45:15;-18516.31;;;10.56;100.00
60583;BME280;46415;47.536;19.066;2024-02-23T09:48:20;-18517.00;;;10.58;100.00
60583;BME280;46415;47.536;19.066;2024-02-23T09:51:25;-18514.94;;;10.51;100.00
60583;BME280;46415;47.536;19.066;2024-02-23T09:54:28;-18513.44;;;10.45;100.00
60583;BME280;46415;47.536;19.066;2024-02-23T09:57:31;-18511.94;;;10.40;100.00
60583;BME280;46415;47.536;19.066;2024-02-23T10:00:36;-18514.94;;;10.51;100.00
60583;BME280;46415;47.536;19.066;2024-02-23T10:03:41;-18514.94;;;10.51;100.00
60583;BME280;46415;47.536;19.066;2024-02-23T10:06:44;-18509.75;;;10.32;100.00
60583;BME280;46415;47.536;19.066;2024-02-23T10:09:47;-18507.41;;;10.23;100.00
60583;BME280;46415;47.536;19.066;2024-02-23T10:12:50;-18507.97;;;10.25;100.00
60583;BME280;46415;47.536;19.066;2024-02-23T10:15:53;-18507.69;;;10.24;100.00
60583;BME280;46415;47.536;19.066;2024-02-23T10:19:15;-18504.81;;;10.13;100.00
60583;BME280;46415;47.536;19.066;2024-02-23T10:22:19;-18503.44;;;10.08;100.00
60583;BME280;46415;47.536;19.066;2024-02-23T10:25:23;-18502.47;;;10.05;100.00
60583;BME280;46415;47.536;19.066;2024-02-23T10:28:26;-18503.31;;;10.08;100.00
60583;BME280;46415;47.536;19.066;2024-02-23T10:31:35;-18502.19;;;10.04;100.00
60583;BME280;46415;47.536;19.066;2024-02-23T10:34:42;-18499.06;;;9.92;100.00
60583;BME280;46415;47.536;19.066;2024-02-23T10:37:48;-18500.84;;;9.99;100.00
60583;BME280;46415;47.536;19.066;2024-02-23T10:40:56;-18500.69;;;9.98;100.00
60583;BME280;46415;47.536;19.066;2024-02-23T10:43:59;-18497.13;;;9.85;100.00
60583;BME280;46415;47.536;19.066;2024-02-23T10:47:04;-18497.41;;;9.86;100.00
60583;BME280;46415;47.536;19.066;2024-02-23T10:50:07;-18497.69;;;9.87;100.00
60583;BME280;46415;47.536;19.066;2024-02-23T10:53:11;-18497.00;;;9.84;100.00
60583;BME280;46415;47.536;19.066;2024-02-23T10:56:15;-18498.63;;;9.91;100.00
60583;BME280;46415;47.536;19.066;2024-02-23T10:59:19;-18500.44;;;9.97;100.00
60583;BME280;46415;47.536;19.066;2024-02-23T11:02:23;-18504.66;;;10.13;100.00
60583;BME280;46415;47.536;19.066;2024-02-23T11:05:28;-18508.66;;;10.28;100.00
60583;BME280;46415;47.536;19.066;2024-02-23T11:08:34;-18514.13;;;10.48;100.00
60583;BME280;46415;47.536;19.066;2024-02-23T11:11:39;-18519.75;;;10.69;100.00
60583;BME280;46415;47.536;19.066;2024-02-23T11:14:45;-18527.94;;;10.99;100.00
60583;BME280;46415;47.536;19.066;2024-02-23T11:17:49;-18538.34;;;11.37;100.00
60583;BME280;46415;47.536;19.066;2024-02-23T11:20:54;-18548.88;;;11.76;100.00
60583;BME280;46415;47.536;19.066;2024-02-23T11:24:02;-18557.22;;;12.07;100.00
60583;BME280;46415;47.536;19.066;2024-02-23T11:27:05;-18557.66;;;12.09;100.00
60583;BME280;46415;47.536;19.066;2024-02-23T11:30:12;-18560.09;;;12.18;100.00
60583;BME280;46415;47.536;19.066;2024-02-23T11:33:54;-18562.69;;;12.27;100.00
60583;BME280;46415;47.536;19.066;2024-02-23T11:37:09;-18563.25;;;12.30;100.00
60583;BME280;46415;47.536;19.066;2024-02-23T11:40:12;-18566.41;;;12.41;100.00
60583;BME280;46415;47.536;19.066;2024-02-23T11:43:16;-18568.03;;;12.47;100.00
60583;BME280;46415;47.536;19.066;2024-02-23T11:46:19;-18567.63;;;12.46;100.00
60583;BME280;46415;47.536;19.066;2024-02-23T11:49:27;-18565.03;;;12.36;100.00
60583;BME280;46415;47.536;19.066;2024-02-23T11:52:30;-18563.94;;;12.32;100.00
60583;BME280;46415;47.536;19.066;2024-02-23T11:55:33;-18566.41;;;12.41;100.00
60583;BME280;46415;47.536;19.066;2024-02-23T11:58:36;-18568.44;;;12.49;100.00
60583;BME280;46415;47.536;19.066;2024-02-23T12:01:39;-18570.75;;;12.57;100.00
60583;BME280;46415;47.536;19.066;2024-02-23T12:04:42;-18572.00;;;12.62;100.00
60583;BME280;46415;47.536;19.066;2024-02-23T12:07:45;-18571.59;;;12.60;100.00
60583;BME280;46415;47.536;19.066;2024-02-23T12:10:49;-18567.75;;;12.46;100.00
60583;BME280;46415;47.536;19.066;2024-02-23T12:13:52;-18568.44;;;12.49;100.00
60583;BME280;46415;47.536;19.066;2024-02-23T12:16:57;-18566.66;;;12.42;100.00
60583;BME280;46415;47.536;19.066;2024-02-23T12:20:01;-18568.84;;;12.50;100.00
60583;BME280;46415;47.536;19.066;2024-02-23T12:23:04;-18576.22;;;12.78;100.00
60583;BME280;46415;47.536;19.066;2024-02-23T12:26:07;-18585.94;;;13.14;100.00
60583;BME280;46415;47.536;19.066;2024-02-23T12:29:10;-18593.19;;;13.40;100.00
60583;BME280;46415;47.536;19.066;2024-02-23T12:32:13;-18596.88;;;13.54;100.00
60583;BME280;46415;47.536;19.066;2024-02-23T12:35:16;-18595.62;;;13.49;100.00
60583;BME280;46415;47.536;19.066;2024-02-23T12:38:19;-18588.53;;;13.23;100.00
60583;BME280;46415;47.536;19.066;2024-02-23T12:41:22;-18579.38;;;12.89;100.00
60583;BME280;46415;47.536;19.066;2024-02-23T12:44:25;-18574.47;;;12.71;100.00
60583;BME280;46415;47.536;19.066;2024-02-23T12:47:28;-18569.13;;;12.51;100.00
60583;BME280;46415;47.536;19.066;2024-02-23T12:50:31;-18562.44;;;12.26;100.00
60583;BME280;46415;47.536;19.066;2024-02-23T12:56:41;-18556.28;;;12.04;100.00
60583;BME280;46415;47.536;19.066;2024-02-23T12:59:45;-18552.72;;;11.91;100.00
60583;BME280;46415;47.536;19.066;2024-02-23T13:02:48;-18550.41;;;11.82;100.00
60583;BME280;46415;47.536;19.066;2024-02-23T13:05:51;-18548.06;;;11.73;100.00
60583;BME280;46415;47.536;19.066;2024-02-23T13:08:53;-18546.97;;;11.69;100.00
60583;BME280;46415;47.536;19.066;2024-02-23T13:11:56;-18546.00;;;11.66;100.00
60583;BME280;46415;47.536;19.066;2024-02-23T13:14:59;-18545.88;;;11.65;100.00
60583;BME280;46415;47.536;19.066;2024-02-23T13:18:03;-18547.66;;;11.72;100.00
60583;BME280;46415;47.536;19.066;2024-02-23T13:21:06;-18547.25;;;11.70;100.00
60583;BME280;46415;47.536;19.066;2024-02-23T13:24:12;-18545.19;;;11.63;100.00
60583;BME280;46415;47.536;19.066;2024-02-23T13:27:15;-18545.59;;;11.64;100.00
60583;BME280;46415;47.536;19.066;2024-02-23T13:30:18;-18544.22;;;11.59;100.00
60583;BME280;46415;47.536;19.066;2024-02-23T13:33:20;-18544.78;;;11.61;100.00
60583;BME280;46415;47.536;19.066;2024-02-23T13:36:25;-18544.50;;;11.60;100.00
60583;BME280;46415;47.536;19.066;2024-02-23T13:39:27;-18545.59;;;11.64;100.00
60583;BME280;46415;47.536;19.066;2024-02-23T13:42:30;-18544.50;;;11.60;100.00
60583;BME280;46415;47.536;19.066;2024-02-23T13:45:50;-18543.69;;;11.57;100.00
60583;BME280;46415;47.536;19.066;2024-02-23T13:49:05;-18543.56;;;11.57;100.00
60583;BME280;46415;47.536;19.066;2024-02-23T13:52:08;-18543.28;;;11.56;100.00
60583;BME280;46415;47.536;19.066;2024-02-23T13:55:11;-18543.41;;;11.56;100.00
60583;BME280;46415;47.536;19.066;2024-02-23T13:58:14;-18543.69;;;11.57;100.00
60583;BME280;46415;47.536;19.066;2024-02-23T14:01:17;-18545.19;;;11.63;100.00
60583;BME280;46415;47.536;19.066;2024-02-23T14:04:20;-18545.31;;;11.63;100.00
60583;BME280;46415;47.536;19.066;2024-02-23T14:07:23;-18544.22;;;11.59;100.00
60583;BME280;46415;47.536;19.066;2024-02-23T14:10:26;-18545.59;;;11.64;100.00
60583;BME280;46415;47.536;19.066;2024-02-23T14:13:28;-18544.22;;;11.59;100.00
60583;BME280;46415;47.536;19.066;2024-02-23T14:16:31;-18545.59;;;11.64;100.00
60583;BME280;46415;47.536;19.066;2024-02-23T14:19:34;-18544.91;;;11.62;100.00
60583;BME280;46415;47.536;19.066;2024-02-23T14:22:40;-18547.78;;;11.72;100.00
60583;BME280;46415;47.536;19.066;2024-02-23T14:25:43;-18543.13;;;11.55;100.00
60583;BME280;46415;47.536;19.066;2024-02-23T14:28:46;-18545.06;;;11.62;100.00
60583;BME280;46415;47.536;19.066;2024-02-23T14:31:49;-18543.81;;;11.58;100.00
60583;BME280;46415;47.536;19.066;2024-02-23T14:34:52;-18540.00;;;11.43;100.00
60583;BME280;46415;47.536;19.066;2024-02-23T14:37:54;-18540.53;;;11.45;100.00
60583;BME280;46415;47.536;19.066;2024-02-23T14:40:57;-18539.72;;;11.42;100.00
60583;BME280;46415;47.536;19.066;2024-02-23T14:44:01;-18537.81;;;11.35;100.00
60583;BME280;46415;47.536;19.066;2024-02-23T14:47:04;-18536.31;;;11.30;100.00
60583;BME280;46415;47.536;19.066;2024-02-23T14:50:08;-18535.88;;;11.28;100.00
60583;BME280;46415;47.536;19.066;2024-02-23T14:53:11;-18535.34;;;11.26;100.00
60583;BME280;46415;47.536;19.066;2024-02-23T14:56:14;-18535.63;;;11.27;100.00
60583;BME280;46415;47.536;19.066;2024-02-23T14:59:17;-18534.25;;;11.22;100.00
60583;BME280;46415;47.536;19.066;2024-02-23T15:02:21;-18533.69;;;11.20;100.00
60583;BME280;46415;47.536;19.066;2024-02-23T15:05:24;-18532.59;;;11.16;100.00
60583;BME280;46415;47.536;19.066;2024-02-23T15:08:27;-18531.78;;;11.13;100.00
60583;BME280;46415;47.536;19.066;2024-02-23T15:11:31;-18533.44;;;11.19;100.00
60583;BME280;46415;47.536;19.066;2024-02-23T15:14:34;-18534.09;;;11.22;100.00
60583;BME280;46415;47.536;19.066;2024-02-23T15:17:37;-18533.28;;;11.19;100.00
60583;BME280;46415;47.536;19.066;2024-02-23T15:20:40;-18531.25;;;11.11;100.00
60583;BME280;46415;47.536;19.066;2024-02-23T15:23:44;-18530.16;;;11.07;100.00
60583;BME280;46415;47.536;19.066;2024-02-23T15:26:47;-18529.47;;;11.04;100.00
60583;BME280;46415;47.536;19.066;2024-02-23T15:29:50;-18529.19;;;11.03;100.00
60583;BME280;46415;47.536;19.066;2024-02-23T15:32:53;-18527.81;;;10.98;100.00
60583;BME280;46415;47.536;19.066;2024-02-23T15:35:56;-18526.31;;;10.93;100.00
60583;BME280;46415;47.536;19.066;2024-02-23T15:38:59;-18525.50;;;10.90;100.00
60583;BME280;46415;47.536;19.066;2024-02-23T15:42:08;-18524.25;;;10.85;100.00
60583;BME280;46415;47.536;19.066;2024-02-23T15:45:10;-18524.66;;;10.87;100.00